Russell, KS

17:09 CDT le 27 Mars 2015 (GMT -0500)
Hill City Municipal | | Change Station
CLOSE
Current Station
Aéroport
Location: Hill City,
Altitude: 2224 ft
Stations météo à proximité

Alt. 2224 ft 39.37 °N, 99.83 °W | Updated 16 minutes ago

Partiellement nuageux
Partiellement nuageux
57 ° F
Paraît 57 ° F
N
12
Vent Variable Vent de SSO
Gusts 23 mph

Aujourd'hui
Haut(e) -- | Bas -- ° F
--% Risque de précip.
Hier
Haut(e) -- | Bas -- ° F
Precip. -- pouce
7:28 AM 7:54 PM
Premier quartier, 56% visible
Pression 30.05 pouce
Visibilité 10.0 Miles terrestres
Nuages Ciel dégagé
Point de rosée 35 ° F
Humidité 44%
Précipitations 0.00 pouce
Profondeur de la couche neigeuse Non disponible.
UV 4 sur 12
Pollen 6.80 sur 12
Qualité de l'air Non disponible.
Flu Activity Non disponible.
METAR KHLC 272153Z AUTO 21010G20KT 170V230 10SM CLR 14/02 A3004 RMK AO2 SLP176 T01390017

More Conditions Fewer Conditions

Pression 30.05 pouce
Visibilité 10.0 Miles terrestres
Nuages Ciel dégagé
Point de rosée 35 ° F
Humidité 44%
Précipitations 0.00 pouce
Profondeur de la couche neigeuse Non disponible.
UV 4 sur 12
Pollen 6.80 sur 12
Qualité de l'air Non disponible.
Flu Activity Non disponible.
METAR KHLC 272153Z AUTO 21010G20KT 170V230 10SM CLR 14/02 A3004 RMK AO2 SLP176 T01390017

More Conditions Fewer Conditions

10-Day Weather Forecast

Almanac

Astronomie

Mar. 27, 2015 Lever Coucher
Temps réel
Crépuscule civil
Crépuscule nautique
Crépuscule astronomique
Lune
Durée de lumière visible
Longueur du jour
Tomorrow will be .
, % of the Moon is Illuminated

Extrêmes aujourd'hui

State Highs State Lows

Community

WunderPhotos

Upload Photos

1,808,843 Photos téléchargées !

WunderBlogs® & News

Nearby

Qualité de l'air

  Qualité de l'air Indice de la qualité de l'air Polluant
Not available.

Épaisseur de neige

Station Depth Altitude

Activité sismique

Ville Distance Mag. Time & Date
Minimum magnitude displayed is 2.5.

Températures des eaux côtières

Lieu Température

Stations

Stations météo à proximité

Emplacement de la station Température Refroidissement éolien Point de rosée Humidité Vent Precip. Alt. Mise à jour Type